sensor_id;sensor_type;location;lat;lon;timestamp;pressure;altitude;pressure_sealevel;temperature;humidity
15272;BME280;7737;51.578;7.268;2023-04-30T00:02:23;101787.97;;;7.72;100.00
15272;BME280;7737;51.578;7.268;2023-04-30T00:04:50;101789.63;;;7.77;100.00
15272;BME280;7737;51.578;7.268;2023-04-30T00:07:18;101799.66;;;7.60;100.00
15272;BME280;7737;51.578;7.268;2023-04-30T00:09:44;101795.44;;;7.52;100.00
15272;BME280;7737;51.578;7.268;2023-04-30T00:12:11;101798.16;;;7.49;100.00
15272;BME280;7737;51.578;7.268;2023-04-30T00:14:37;101798.47;;;7.32;100.00
15272;BME280;7737;51.578;7.268;2023-04-30T00:17:04;101794.78;;;7.41;100.00
15272;BME280;7737;51.578;7.268;2023-04-30T00:19:30;101798.34;;;7.38;100.00
15272;BME280;7737;51.578;7.268;2023-04-30T00:21:57;101798.94;;;7.52;100.00
15272;BME280;7737;51.578;7.268;2023-04-30T00:24:27;101806.97;;;7.49;100.00
15272;BME280;7737;51.578;7.268;2023-04-30T00:26:53;101798.38;;;7.36;100.00
15272;BME280;7737;51.578;7.268;2023-04-30T00:29:20;101808.94;;;7.38;100.00
15272;BME280;7737;51.578;7.268;2023-04-30T00:31:46;101803.75;;;7.32;100.00
15272;BME280;7737;51.578;7.268;2023-04-30T00:34:13;101819.72;;;7.26;100.00
15272;BME280;7737;51.578;7.268;2023-04-30T00:36:39;101821.47;;;7.27;100.00
15272;BME280;7737;51.578;7.268;2023-04-30T00:39:06;101810.91;;;7.25;100.00
15272;BME280;7737;51.578;7.268;2023-04-30T00:41:34;101815.66;;;7.08;100.00
15272;BME280;7737;51.578;7.268;2023-04-30T00:44:01;101814.69;;;7.14;100.00
15272;BME280;7737;51.578;7.268;2023-04-30T00:46:27;101816.34;;;7.18;100.00
15272;BME280;7737;51.578;7.268;2023-04-30T00:48:54;101817.47;;;7.05;100.00
15272;BME280;7737;51.578;7.268;2023-04-30T00:51:21;101809.59;;;7.02;100.00
15272;BME280;7737;51.578;7.268;2023-04-30T00:53:48;101816.84;;;6.89;100.00
15272;BME280;7737;51.578;7.268;2023-04-30T00:56:15;101822.13;;;6.91;100.00
15272;BME280;7737;51.578;7.268;2023-04-30T00:58:43;101821.88;;;7.06;100.00
15272;BME280;7737;51.578;7.268;2023-04-30T01:01:10;101813.34;;;6.89;100.00
15272;BME280;7737;51.578;7.268;2023-04-30T01:03:38;101816.13;;;6.81;100.00
15272;BME280;7737;51.578;7.268;2023-04-30T01:06:04;101814.16;;;6.92;100.00
15272;BME280;7737;51.578;7.268;2023-04-30T01:08:31;101815.06;;;6.93;100.00
15272;BME280;7737;51.578;7.268;2023-04-30T01:11:07;101813.25;;;6.95;100.00
15272;BME280;7737;51.578;7.268;2023-04-30T01:13:41;101822.72;;;6.54;100.00
15272;BME280;7737;51.578;7.268;2023-04-30T01:16:16;101817.41;;;6.56;100.00
15272;BME280;7737;51.578;7.268;2023-04-30T01:18:48;101818.13;;;6.65;100.00
15272;BME280;7737;51.578;7.268;2023-04-30T01:21:17;101819.09;;;6.61;100.00
15272;BME280;7737;51.578;7.268;2023-04-30T01:24:12;101814.78;;;6.56;100.00
15272;BME280;7737;51.578;7.268;2023-04-30T01:26:52;101822.06;;;6.40;100.00
15272;BME280;7737;51.578;7.268;2023-04-30T01:29:25;101825.13;;;6.11;100.00
15272;BME280;7737;51.578;7.268;2023-04-30T01:31:52;101816.06;;;6.29;100.00
15272;BME280;7737;51.578;7.268;2023-04-30T01:34:18;101817.84;;;6.27;100.00
15272;BME280;7737;51.578;7.268;2023-04-30T01:36:51;101817.84;;;6.27;100.00
15272;BME280;7737;51.578;7.268;2023-04-30T01:39:38;101824.09;;;6.22;100.00
15272;BME280;7737;51.578;7.268;2023-04-30T01:42:12;101823.13;;;6.27;100.00
15272;BME280;7737;51.578;7.268;2023-04-30T01:44:57;101819.59;;;6.28;100.00
15272;BME280;7737;51.578;7.268;2023-04-30T01:47:33;101824.78;;;6.34;100.00
15272;BME280;7737;51.578;7.268;2023-04-30T01:50:12;101828.09;;;6.48;100.00
15272;BME280;7737;51.578;7.268;2023-04-30T01:52:45;101814.22;;;6.34;100.00
15272;BME280;7737;51.578;7.268;2023-04-30T01:55:15;101821.16;;;6.41;100.00
15272;BME280;7737;51.578;7.268;2023-04-30T01:57:51;101821.34;;;6.29;100.00
15272;BME280;7737;51.578;7.268;2023-04-30T02:00:21;101818.75;;;6.26;100.00
15272;BME280;7737;51.578;7.268;2023-04-30T02:02:48;101822.28;;;6.24;100.00
15272;BME280;7737;51.578;7.268;2023-04-30T02:05:15;101830.28;;;6.19;100.00
15272;BME280;7737;51.578;7.268;2023-04-30T02:07:43;101828.72;;;6.06;100.00
15272;BME280;7737;51.578;7.268;2023-04-30T02:10:10;101834.00;;;6.06;100.00
15272;BME280;7737;51.578;7.268;2023-04-30T02:12:37;101836.41;;;6.20;100.00
15272;BME280;7737;51.578;7.268;2023-04-30T02:15:05;101843.50;;;6.18;100.00
15272;BME280;7737;51.578;7.268;2023-04-30T02:17:33;101836.63;;;6.04;100.00
15272;BME280;7737;51.578;7.268;2023-04-30T02:19:59;101844.75;;;5.88;100.00
15272;BME280;7737;51.578;7.268;2023-04-30T02:22:26;101846.44;;;5.95;100.00
15272;BME280;7737;51.578;7.268;2023-04-30T02:24:53;101839.41;;;5.94;100.00
15272;BME280;7737;51.578;7.268;2023-04-30T02:27:21;101844.66;;;5.97;100.00
15272;BME280;7737;51.578;7.268;2023-04-30T02:29:48;101844.81;;;5.85;100.00
15272;BME280;7737;51.578;7.268;2023-04-30T02:32:15;101846.41;;;5.96;100.00
15272;BME280;7737;51.578;7.268;2023-04-30T02:34:43;101844.81;;;5.85;100.00
15272;BME280;7737;51.578;7.268;2023-04-30T02:37:09;101843.00;;;5.90;100.00
15272;BME280;7737;51.578;7.268;2023-04-30T02:39:36;101844.81;;;5.82;100.00
15272;BME280;7737;51.578;7.268;2023-04-30T02:42:03;101840.63;;;5.63;100.00
15272;BME280;7737;51.578;7.268;2023-04-30T02:44:31;101844.09;;;5.69;100.00
15272;BME280;7737;51.578;7.268;2023-04-30T02:46:57;101840.66;;;5.61;100.00
15272;BME280;7737;51.578;7.268;2023-04-30T02:49:24;101839.69;;;5.67;100.00
15272;BME280;7737;51.578;7.268;2023-04-30T02:51:52;101837.97;;;5.66;100.00
15272;BME280;7737;51.578;7.268;2023-04-30T02:54:18;101832.56;;;5.75;100.00
15272;BME280;7737;51.578;7.268;2023-04-30T02:56:45;101838.72;;;5.75;100.00
15272;BME280;7737;51.578;7.268;2023-04-30T02:59:12;101834.38;;;5.70;100.00
15272;BME280;7737;51.578;7.268;2023-04-30T03:01:38;101838.78;;;5.71;100.00
15272;BME280;7737;51.578;7.268;2023-04-30T03:04:05;101836.25;;;5.62;100.00
15272;BME280;7737;51.578;7.268;2023-04-30T03:06:32;101835.19;;;5.79;100.00
15272;BME280;7737;51.578;7.268;2023-04-30T03:08:59;101824.84;;;5.61;100.00
15272;BME280;7737;51.578;7.268;2023-04-30T03:11:26;101827.41;;;5.66;100.00
15272;BME280;7737;51.578;7.268;2023-04-30T03:13:52;101825.63;;;5.68;100.00
15272;BME280;7737;51.578;7.268;2023-04-30T03:16:20;101825.66;;;5.66;100.00
15272;BME280;7737;51.578;7.268;2023-04-30T03:18:47;101826.34;;;5.82;100.00
15272;BME280;7737;51.578;7.268;2023-04-30T03:21:14;101817.81;;;5.60;100.00
15272;BME280;7737;51.578;7.268;2023-04-30T03:23:40;101818.56;;;5.70;100.00
15272;BME280;7737;51.578;7.268;2023-04-30T03:26:08;101815.06;;;5.68;100.00
15272;BME280;7737;51.578;7.268;2023-04-30T03:28:35;101818.69;;;5.61;100.00
15272;BME280;7737;51.578;7.268;2023-04-30T03:31:01;101821.16;;;5.74;100.00
15272;BME280;7737;51.578;7.268;2023-04-30T03:33:29;101823.88;;;5.67;100.00
15272;BME280;7737;51.578;7.268;2023-04-30T03:35:56;101821.53;;;5.41;100.00
15272;BME280;7737;51.578;7.268;2023-04-30T03:38:22;101827.63;;;5.46;100.00
15272;BME280;7737;51.578;7.268;2023-04-30T03:40:49;101832.03;;;5.45;100.00
15272;BME280;7737;51.578;7.268;2023-04-30T03:43:17;101822.38;;;5.44;100.00
15272;BME280;7737;51.578;7.268;2023-04-30T03:45:43;101828.50;;;5.48;100.00
15272;BME280;7737;51.578;7.268;2023-04-30T03:48:09;101824.19;;;5.39;100.00
15272;BME280;7737;51.578;7.268;2023-04-30T03:50:36;101834.56;;;5.54;100.00
15272;BME280;7737;51.578;7.268;2023-04-30T03:53:02;101834.63;;;5.48;100.00
15272;BME280;7737;51.578;7.268;2023-04-30T03:55:29;101825.09;;;5.40;100.00
15272;BME280;7737;51.578;7.268;2023-04-30T03:57:55;101833.88;;;5.39;100.00
15272;BME280;7737;51.578;7.268;2023-04-30T04:00:24;101832.03;;;5.45;100.00
15272;BME280;7737;51.578;7.268;2023-04-30T04:02:50;101826.81;;;5.42;100.00
15272;BME280;7737;51.578;7.268;2023-04-30T04:05:17;101829.38;;;5.45;100.00
15272;BME280;7737;51.578;7.268;2023-04-30T04:07:43;101838.28;;;5.35;100.00
15272;BME280;7737;51.578;7.268;2023-04-30T04:10:09;101839.03;;;5.49;100.00
15272;BME280;7737;51.578;7.268;2023-04-30T04:12:36;101831.19;;;5.42;100.00
15272;BME280;7737;51.578;7.268;2023-04-30T04:15:03;101840.75;;;5.52;100.00
15272;BME280;7737;51.578;7.268;2023-04-30T04:17:31;101832.88;;;5.49;100.00
15272;BME280;7737;51.578;7.268;2023-04-30T04:19:57;101845.25;;;5.41;100.00
15272;BME280;7737;51.578;7.268;2023-04-30T04:22:24;101840.03;;;5.39;100.00
15272;BME280;7737;51.578;7.268;2023-04-30T04:24:50;101846.63;;;5.75;100.00
15272;BME280;7737;51.578;7.268;2023-04-30T04:27:18;101846.53;;;5.83;100.00
15272;BME280;7737;51.578;7.268;2023-04-30T04:29:45;101849.41;;;5.66;100.00
15272;BME280;7737;51.578;7.268;2023-04-30T04:32:12;101841.56;;;5.60;100.00
15272;BME280;7737;51.578;7.268;2023-04-30T04:34:40;101848.53;;;5.66;100.00
15272;BME280;7737;51.578;7.268;2023-04-30T04:37:07;101851.09;;;5.72;100.00
15272;BME280;7737;51.578;7.268;2023-04-30T04:39:34;101852.03;;;5.66;100.00
15272;BME280;7737;51.578;7.268;2023-04-30T04:42:01;101853.69;;;5.76;100.00
15272;BME280;7737;51.578;7.268;2023-04-30T04:44:29;101860.78;;;5.70;100.00
15272;BME280;7737;51.578;7.268;2023-04-30T04:46:56;101845.88;;;5.66;100.00
15272;BME280;7737;51.578;7.268;2023-04-30T04:49:23;101847.81;;;5.50;100.00
15272;BME280;7737;51.578;7.268;2023-04-30T04:51:51;101853.19;;;5.42;100.00
15272;BME280;7737;51.578;7.268;2023-04-30T04:54:17;101855.84;;;5.39;100.00
15272;BME280;7737;51.578;7.268;2023-04-30T04:56:44;101857.50;;;5.49;100.00
15272;BME280;7737;51.578;7.268;2023-04-30T04:59:11;101858.19;;;5.65;100.00
15272;BME280;7737;51.578;7.268;2023-04-30T05:01:37;101853.69;;;5.76;100.00
15272;BME280;7737;51.578;7.268;2023-04-30T05:04:04;101849.16;;;5.89;100.00
15272;BME280;7737;51.578;7.268;2023-04-30T05:06:30;101846.44;;;5.95;100.00
15272;BME280;7737;51.578;7.268;2023-04-30T05:08:58;101849.91;;;6.00;100.00
15272;BME280;7737;51.578;7.268;2023-04-30T05:11:25;101852.31;;;6.15;100.00
15272;BME280;7737;51.578;7.268;2023-04-30T05:13:51;101852.28;;;6.18;100.00
15272;BME280;7737;51.578;7.268;2023-04-30T05:16:18;101858.34;;;6.26;100.00
15272;BME280;7737;51.578;7.268;2023-04-30T05:18:44;101862.59;;;6.38;100.00
15272;BME280;7737;51.578;7.268;2023-04-30T05:21:11;101862.38;;;6.53;100.00
15272;BME280;7737;51.578;7.268;2023-04-30T05:23:37;101865.78;;;6.61;100.00
15272;BME280;7737;51.578;7.268;2023-04-30T05:26:05;101861.44;;;6.55;100.00
15272;BME280;7737;51.578;7.268;2023-04-30T05:28:31;101859.69;;;6.56;100.00
15272;BME280;7737;51.578;7.268;2023-04-30T05:30:58;101868.41;;;6.61;100.00
15272;BME280;7737;51.578;7.268;2023-04-30T05:33:25;101870.81;;;6.76;100.00
15272;BME280;7737;51.578;7.268;2023-04-30T05:35:51;101873.38;;;6.81;100.00
15272;BME280;7737;51.578;7.268;2023-04-30T05:38:18;101875.06;;;6.88;100.00
15272;BME280;7737;51.578;7.268;2023-04-30T05:40:44;101869.47;;;7.04;100.00
15272;BME280;7737;51.578;7.268;2023-04-30T05:43:12;101871.13;;;7.10;100.00
15272;BME280;7737;51.578;7.268;2023-04-30T05:45:39;101869.19;;;7.21;100.00
15272;BME280;7737;51.578;7.268;2023-04-30T05:48:05;101873.34;;;7.34;100.00
15272;BME280;7737;51.578;7.268;2023-04-30T05:50:32;101876.88;;;7.34;100.00
15272;BME280;7737;51.578;7.268;2023-04-30T05:52:58;101867.56;;;7.61;100.00
15272;BME280;7737;51.578;7.268;2023-04-30T05:55:25;101872.78;;;7.66;100.00
15272;BME280;7737;51.578;7.268;2023-04-30T05:57:51;101875.19;;;7.78;100.00
15272;BME280;7737;51.578;7.268;2023-04-30T06:00:19;101878.47;;;7.89;100.00
15272;BME280;7737;51.578;7.268;2023-04-30T06:02:46;101874.72;;;8.02;100.00
15272;BME280;7737;51.578;7.268;2023-04-30T06:05:12;101872.72;;;8.12;100.00
15272;BME280;7737;51.578;7.268;2023-04-30T06:07:39;101876.09;;;8.20;100.00
15272;BME280;7737;51.578;7.268;2023-04-30T06:10:06;101877.97;;;8.15;100.00
15272;BME280;7737;51.578;7.268;2023-04-30T06:12:33;101871.63;;;8.22;100.00
15272;BME280;7737;51.578;7.268;2023-04-30T06:15:00;101871.97;;;8.48;100.00
15272;BME280;7737;51.578;7.268;2023-04-30T06:17:27;101874.66;;;8.46;100.00
15272;BME280;7737;51.578;7.268;2023-04-30T06:19:54;101877.00;;;8.60;100.00
15272;BME280;7737;51.578;7.268;2023-04-30T06:22:22;101874.19;;;8.66;100.00
15272;BME280;7737;51.578;7.268;2023-04-30T06:24:49;101869.81;;;8.65;100.00
15272;BME280;7737;51.578;7.268;2023-04-30T06:27:15;101864.28;;;8.74;100.00
15272;BME280;7737;51.578;7.268;2023-04-30T06:29:42;101862.31;;;8.82;100.00
15272;BME280;7737;51.578;7.268;2023-04-30T06:32:08;101857.59;;;8.95;100.00
15272;BME280;7737;51.578;7.268;2023-04-30T06:34:37;101855.13;;;9.23;100.00
15272;BME280;7737;51.578;7.268;2023-04-30T06:37:03;101854.03;;;9.30;100.00
15272;BME280;7737;51.578;7.268;2023-04-30T06:39:30;101850.59;;;9.58;100.00
15272;BME280;7737;51.578;7.268;2023-04-30T06:41:56;101848.00;;;9.57;100.00
15272;BME280;7737;51.578;7.268;2023-04-30T06:44:23;101846.44;;;9.50;100.00
15272;BME280;7737;51.578;7.268;2023-04-30T06:46:50;101849.50;;;9.67;100.00
15272;BME280;7737;51.578;7.268;2023-04-30T06:49:16;101853.97;;;9.65;100.00
15272;BME280;7737;51.578;7.268;2023-04-30T06:51:44;101843.88;;;9.77;100.00
15272;BME280;7737;51.578;7.268;2023-04-30T06:54:10;101840.75;;;9.94;100.00
15272;BME280;7737;51.578;7.268;2023-04-30T06:56:38;101838.19;;;9.91;100.00
15272;BME280;7737;51.578;7.268;2023-04-30T06:59:05;101848.25;;;10.09;100.00
15272;BME280;7737;51.578;7.268;2023-04-30T07:01:31;101845.94;;;10.29;100.00
15272;BME280;7737;51.578;7.268;2023-04-30T07:03:58;101838.00;;;10.28;100.00
15272;BME280;7737;51.578;7.268;2023-04-30T07:06:25;101839.19;;;10.18;100.00
15272;BME280;7737;51.578;7.268;2023-04-30T07:08:53;101841.31;;;10.05;100.00
15272;BME280;7737;51.578;7.268;2023-04-30T07:11:19;101841.59;;;10.27;100.00
15272;BME280;7737;51.578;7.268;2023-04-30T07:13:46;101834.03;;;10.41;100.00
15272;BME280;7737;51.578;7.268;2023-04-30T07:16:12;101836.00;;;10.64;100.00
15272;BME280;7737;51.578;7.268;2023-04-30T07:18:41;101835.59;;;10.76;100.00
15272;BME280;7737;51.578;7.268;2023-04-30T07:21:07;101827.78;;;10.71;100.00
15272;BME280;7737;51.578;7.268;2023-04-30T07:23:34;101827.03;;;10.66;100.00
15272;BME280;7737;51.578;7.268;2023-04-30T07:26:02;101826.25;;;10.63;100.00
15272;BME280;7737;51.578;7.268;2023-04-30T07:28:29;101827.50;;;11.05;100.00
15272;BME280;7737;51.578;7.268;2023-04-30T07:30:55;101829.72;;;10.92;100.00
15272;BME280;7737;51.578;7.268;2023-04-30T07:33:22;101819.34;;;10.85;100.00
15272;BME280;7737;51.578;7.268;2023-04-30T07:35:48;101817.84;;;11.02;100.00
15272;BME280;7737;51.578;7.268;2023-04-30T07:38:15;101821.44;;;11.28;100.00
15272;BME280;7737;51.578;7.268;2023-04-30T07:40:43;101825.66;;;11.07;100.00
15272;BME280;7737;51.578;7.268;2023-04-30T07:43:11;101816.09;;;11.52;100.00
15272;BME280;7737;51.578;7.268;2023-04-30T07:45:37;101812.50;;;11.29;100.00
15272;BME280;7737;51.578;7.268;2023-04-30T07:48:04;101810.41;;;11.38;100.00
15272;BME280;7737;51.578;7.268;2023-04-30T07:50:31;101815.38;;;11.47;100.00
15272;BME280;7737;51.578;7.268;2023-04-30T07:52:58;101813.91;;;11.63;100.00
15272;BME280;7737;51.578;7.268;2023-04-30T07:55:25;101815.34;;;11.74;100.00
15272;BME280;7737;51.578;7.268;2023-04-30T07:57:51;101804.34;;;11.33;100.00
15272;BME280;7737;51.578;7.268;2023-04-30T08:00:19;101814.72;;;11.66;100.00
15272;BME280;7737;51.578;7.268;2023-04-30T08:02:46;101813.00;;;11.65;100.00
15272;BME280;7737;51.578;7.268;2023-04-30T08:05:14;101809.22;;;11.72;100.00
15272;BME280;7737;51.578;7.268;2023-04-30T08:07:40;101808.47;;;11.91;100.00
15272;BME280;7737;51.578;7.268;2023-04-30T08:10:09;101803.28;;;12.10;100.00
15272;BME280;7737;51.578;7.268;2023-04-30T08:12:35;101807.25;;;12.00;100.00
15272;BME280;7737;51.578;7.268;2023-04-30T08:15:03;101802.91;;;12.42;100.00
15272;BME280;7737;51.578;7.268;2023-04-30T08:17:33;101795.09;;;12.38;100.00
15272;BME280;7737;51.578;7.268;2023-04-30T08:20:00;101788.66;;;12.65;100.00
15272;BME280;7737;51.578;7.268;2023-04-30T08:22:26;101788.38;;;12.93;100.00
15272;BME280;7737;51.578;7.268;2023-04-30T08:24:53;101784.69;;;12.95;100.00
15272;BME280;7737;51.578;7.268;2023-04-30T08:27:20;101783.06;;;12.71;100.00
15272;BME280;7737;51.578;7.268;2023-04-30T08:29:46;101780.47;;;12.69;100.00
15272;BME280;7737;51.578;7.268;2023-04-30T08:32:13;101770.66;;;12.48;100.00
15272;BME280;7737;51.578;7.268;2023-04-30T08:34:41;101775.88;;;12.51;100.00
15272;BME280;7737;51.578;7.268;2023-04-30T08:37:08;101771.44;;;12.94;100.00
15272;BME280;7737;51.578;7.268;2023-04-30T08:39:34;101780.00;;;13.22;100.00
15272;BME280;7737;51.578;7.268;2023-04-30T08:42:03;101781.69;;;12.82;100.00
15272;BME280;7737;51.578;7.268;2023-04-30T08:44:33;101772.22;;;12.96;100.00
15272;BME280;7737;51.578;7.268;2023-04-30T08:47:00;101767.50;;;13.02;100.00
15272;BME280;7737;51.578;7.268;2023-04-30T08:49:29;101768.13;;;13.09;100.00
15272;BME280;7737;51.578;7.268;2023-04-30T08:51:59;101777.72;;;13.73;100.00
15272;BME280;7737;51.578;7.268;2023-04-30T08:54:27;101766.34;;;13.09;100.00
15272;BME280;7737;51.578;7.268;2023-04-30T08:56:55;101765.53;;;13.66;100.00
15272;BME280;7737;51.578;7.268;2023-04-30T08:59:22;101766.50;;;13.65;100.00
15272;BME280;7737;51.578;7.268;2023-04-30T09:01:49;101760.53;;;13.79;100.00
15272;BME280;7737;51.578;7.268;2023-04-30T09:04:15;101752.41;;;13.80;100.00
15272;BME280;7737;51.578;7.268;2023-04-30T09:06:42;101758.56;;;13.82;100.00
15272;BME280;7737;51.578;7.268;2023-04-30T09:09:12;101756.03;;;13.79;100.00
15272;BME280;7737;51.578;7.268;2023-04-30T09:11:39;101741.88;;;13.77;100.00
15272;BME280;7737;51.578;7.268;2023-04-30T09:14:06;101741.50;;;14.03;100.00
15272;BME280;7737;51.578;7.268;2023-04-30T09:16:44;101729.28;;;14.35;100.00
15272;BME280;7737;51.578;7.268;2023-04-30T09:19:25;101726.56;;;14.37;100.00
15272;BME280;7737;51.578;7.268;2023-04-30T09:21:52;101717.38;;;14.24;100.00
15272;BME280;7737;51.578;7.268;2023-04-30T09:24:20;101722.94;;;14.38;100.00
15272;BME280;7737;51.578;7.268;2023-04-30T09:26:47;101718.09;;;14.63;100.00
15272;BME280;7737;51.578;7.268;2023-04-30T09:29:14;101706.63;;;14.61;100.00
15272;BME280;7737;51.578;7.268;2023-04-30T09:31:42;101697.50;;;14.82;100.00
15272;BME280;7737;51.578;7.268;2023-04-30T09:34:09;101702.72;;;15.18;100.00
15272;BME280;7737;51.578;7.268;2023-04-30T09:36:36;101702.56;;;15.04;100.00
15272;BME280;7737;51.578;7.268;2023-04-30T09:39:09;101688.75;;;15.29;100.00
15272;BME280;7737;51.578;7.268;2023-04-30T09:41:39;101678.91;;;14.79;100.00
15272;BME280;7737;51.578;7.268;2023-04-30T09:44:05;101665.38;;;14.82;100.00
15272;BME280;7737;51.578;7.268;2023-04-30T09:46:33;101672.88;;;15.58;100.00
15272;BME280;7737;51.578;7.268;2023-04-30T09:49:05;101662.00;;;15.93;100.00
15272;BME280;7737;51.578;7.268;2023-04-30T09:51:31;101646.94;;;15.26;100.00
15272;BME280;7737;51.578;7.268;2023-04-30T09:54:01;101647.38;;;15.67;100.00
15272;BME280;7737;51.578;7.268;2023-04-30T09:56:30;101643.06;;;15.80;100.00
15272;BME280;7737;51.578;7.268;2023-04-30T09:59:03;101632.22;;;15.17;100.00
15272;BME280;7737;51.578;7.268;2023-04-30T10:01:31;101632.56;;;15.60;100.00
15272;BME280;7737;51.578;7.268;2023-04-30T10:04:01;101643.66;;;16.01;100.00
15272;BME280;7737;51.578;7.268;2023-04-30T10:06:28;101635.09;;;15.63;100.00
15272;BME280;7737;51.578;7.268;2023-04-30T10:09:01;101621.78;;;15.77;100.00
15272;BME280;7737;51.578;7.268;2023-04-30T10:11:31;101620.81;;;16.09;100.00
15272;BME280;7737;51.578;7.268;2023-04-30T10:14:02;101607.81;;;16.17;100.00
15272;BME280;7737;51.578;7.268;2023-04-30T10:16:39;101606.56;;;15.93;100.00
15272;BME280;7737;51.578;7.268;2023-04-30T10:19:09;101617.06;;;16.41;100.00
15272;BME280;7737;51.578;7.268;2023-04-30T10:21:39;101610.91;;;16.25;100.00
15272;BME280;7737;51.578;7.268;2023-04-30T10:24:08;101603.66;;;16.41;100.00
15272;BME280;7737;51.578;7.268;2023-04-30T10:26:35;101600.44;;;16.51;100.00
15272;BME280;7737;51.578;7.268;2023-04-30T10:29:04;101583.38;;;16.22;100.00
15272;BME280;7737;51.578;7.268;2023-04-30T10:31:31;101575.19;;;16.55;100.00
15272;BME280;7737;51.578;7.268;2023-04-30T10:34:05;101580.50;;;15.95;100.00
15272;BME280;7737;51.578;7.268;2023-04-30T10:36:38;101566.59;;;16.78;100.00
15272;BME280;7737;51.578;7.268;2023-04-30T10:39:06;101557.75;;;16.76;100.00
15272;BME280;7737;51.578;7.268;2023-04-30T10:41:33;101584.63;;;16.76;100.00
15272;BME280;7737;51.578;7.268;2023-04-30T10:44:01;101588.53;;;16.84;100.00
15272;BME280;7737;51.578;7.268;2023-04-30T10:46:33;101565.44;;;16.52;100.00
15272;BME280;7737;51.578;7.268;2023-04-30T10:49:00;101568.69;;;17.01;100.00
15272;BME280;7737;51.578;7.268;2023-04-30T10:51:45;101559.69;;;17.02;100.00
15272;BME280;7737;51.578;7.268;2023-04-30T10:54:14;101582.50;;;16.95;100.00
15272;BME280;7737;51.578;7.268;2023-04-30T10:56:44;101554.97;;;17.05;100.00
15272;BME280;7737;51.578;7.268;2023-04-30T10:59:11;101552.22;;;17.48;100.00
15272;BME280;7737;51.578;7.268;2023-04-30T11:01:57;101530.06;;;17.44;100.00
15272;BME280;7737;51.578;7.268;2023-04-30T11:04:24;101519.75;;;17.51;100.00
15272;BME280;7737;51.578;7.268;2023-04-30T11:07:00;101515.94;;;18.21;100.00
15272;BME280;7737;51.578;7.268;2023-04-30T11:09:36;101501.06;;;18.03;99.74
15272;BME280;7737;51.578;7.268;2023-04-30T11:12:04;101506.44;;;17.49;100.00
15272;BME280;7737;51.578;7.268;2023-04-30T11:14:39;101520.41;;;17.28;100.00
15272;BME280;7737;51.578;7.268;2023-04-30T11:17:08;101513.38;;;17.66;99.96
15272;BME280;7737;51.578;7.268;2023-04-30T11:19:41;101499.09;;;18.05;99.66
15272;BME280;7737;51.578;7.268;2023-04-30T11:22:15;101497.75;;;17.85;97.32
15272;BME280;7737;51.578;7.268;2023-04-30T11:24:52;101496.56;;;18.92;98.96
15272;BME280;7737;51.578;7.268;2023-04-30T11:27:20;101516.47;;;18.13;100.00
15272;BME280;7737;51.578;7.268;2023-04-30T11:29:48;101492.19;;;17.61;96.85
15272;BME280;7737;51.578;7.268;2023-04-30T11:32:17;101483.44;;;17.85;95.94
15272;BME280;7737;51.578;7.268;2023-04-30T11:34:44;101490.03;;;18.70;96.84
15272;BME280;7737;51.578;7.268;2023-04-30T11:37:12;101464.06;;;18.32;93.96
15272;BME280;7737;51.578;7.268;2023-04-30T11:39:39;101455.44;;;18.27;93.37
15272;BME280;7737;51.578;7.268;2023-04-30T11:42:07;101465.88;;;18.81;94.18
15272;BME280;7737;51.578;7.268;2023-04-30T11:44:33;101460.56;;;18.04;93.33
15272;BME280;7737;51.578;7.268;2023-04-30T11:47:00;101453.03;;;18.85;93.17
15272;BME280;7737;51.578;7.268;2023-04-30T11:49:28;101455.97;;;18.69;94.19
15272;BME280;7737;51.578;7.268;2023-04-30T11:51:55;101468.09;;;17.87;93.64
15272;BME280;7737;51.578;7.268;2023-04-30T11:54:22;101466.56;;;17.95;93.85
15272;BME280;7737;51.578;7.268;2023-04-30T11:56:48;101461.25;;;18.33;93.87
15272;BME280;7737;51.578;7.268;2023-04-30T11:59:16;101457.25;;;18.13;94.03
15272;BME280;7737;51.578;7.268;2023-04-30T12:01:42;101472.38;;;17.89;95.55
15272;BME280;7737;51.578;7.268;2023-04-30T12:04:09;101484.72;;;18.31;96.18
15272;BME280;7737;51.578;7.268;2023-04-30T12:06:37;101473.38;;;17.61;94.31
15272;BME280;7737;51.578;7.268;2023-04-30T12:09:04;101468.78;;;18.15;94.96
15272;BME280;7737;51.578;7.268;2023-04-30T12:11:34;101446.94;;;18.70;93.57
15272;BME280;7737;51.578;7.268;2023-04-30T12:14:02;101452.88;;;18.50;93.30
15272;BME280;7737;51.578;7.268;2023-04-30T12:16:39;101452.97;;;18.61;93.58
15272;BME280;7737;51.578;7.268;2023-04-30T12:19:05;101434.50;;;18.80;91.52
15272;BME280;7737;51.578;7.268;2023-04-30T12:21:34;101436.25;;;18.44;91.76
15272;BME280;7737;51.578;7.268;2023-04-30T12:24:03;101435.50;;;19.16;93.26
15272;BME280;7737;51.578;7.268;2023-04-30T12:26:35;101459.50;;;18.07;93.01
15272;BME280;7737;51.578;7.268;2023-04-30T12:29:04;101440.56;;;18.46;91.86
15272;BME280;7737;51.578;7.268;2023-04-30T12:31:31;101408.59;;;19.03;89.09
15272;BME280;7737;51.578;7.268;2023-04-30T12:34:02;101401.78;;;18.74;88.45
15272;BME280;7737;51.578;7.268;2023-04-30T12:36:30;101416.66;;;18.79;90.09
15272;BME280;7737;51.578;7.268;2023-04-30T12:39:04;101406.22;;;19.70;89.17
15272;BME280;7737;51.578;7.268;2023-04-30T12:41:35;101413.88;;;19.05;88.75
15272;BME280;7737;51.578;7.268;2023-04-30T12:44:18;101401.91;;;19.56;87.79
15272;BME280;7737;51.578;7.268;2023-04-30T12:46:45;101391.47;;;18.05;85.75
15272;BME280;7737;51.578;7.268;2023-04-30T12:49:21;101422.63;;;17.70;89.05
15272;BME280;7737;51.578;7.268;2023-04-30T12:51:49;101427.91;;;17.44;89.55
15272;BME280;7737;51.578;7.268;2023-04-30T12:54:25;101436.03;;;18.47;91.77
15272;BME280;7737;51.578;7.268;2023-04-30T12:56:59;101420.53;;;18.25;90.07
15272;BME280;7737;51.578;7.268;2023-04-30T12:59:26;101422.06;;;18.29;89.98
15272;BME280;7737;51.578;7.268;2023-04-30T13:01:53;101430.19;;;17.90;90.79
15272;BME280;7737;51.578;7.268;2023-04-30T13:04:20;101423.13;;;17.35;90.51